Time;durP1;ratioP1;P1;durP2;ratioP2;P2;SDS_P1;SDS_P2;PMS_P1;PMS_P2;Temp;Humidity;BMP_temperature;BMP_pressure;BME280_temperature;BME280_humidity;BME280_pressure;Samples;Min_cycle;Max_cycle;Signal;HPM_P1;HPM_P2
2022/08/01 00:01:58;;;;;;;8.53;2.83;;;;;;;20.38;61.37;99254.14;1706999;82;21625;-58
2022/08/01 00:04:24;;;;;;;5.90;2.90;;;;;;;21.23;59.74;99247.78;1713208;82;21040;-58
2022/08/01 00:06:51;;;;;;;3.65;2.55;;;;;;;21.23;59.74;99247.78;1705323;83;21404;-58
2022/08/01 00:09:18;;;;;;;8.70;3.07;;;;;;;21.26;58.83;99236.81;1708063;82;21785;-58
2022/08/01 00:11:45;;;;;;;10.10;3.20;;;;;;;21.32;59.19;99237.56;1713237;82;21484;-58
2022/08/01 00:14:13;;;;;;;5.87;3.35;;;;;;;21.34;58.68;99235.59;1704642;83;21446;-61
2022/08/01 00:16:40;;;;;;;8.15;2.55;;;;;;;21.36;58.60;99237.62;1704218;82;21076;-58
2022/08/01 00:19:06;;;;;;;3.02;2.70;;;;;;;21.42;58.31;99231.71;1705946;82;21495;-58
2022/08/01 00:21:33;;;;;;;7.10;2.60;;;;;;;21.40;58.19;99227.01;1714865;82;21975;-58
2022/08/01 00:24:00;;;;;;;5.35;3.30;;;;;;;20.77;60.81;99247.55;1707015;83;21583;-58
2022/08/01 00:26:26;;;;;;;8.65;3.77;;;;;;;20.31;61.29;99246.36;1710447;82;21506;-58
2022/08/01 00:28:53;;;;;;;7.08;3.10;;;;;;;20.31;61.29;99246.36;1712853;82;21632;-58
2022/08/01 00:31:19;;;;;;;8.80;3.70;;;;;;;21.21;59.79;99242.61;1726544;82;21466;-58
2022/08/01 00:33:46;;;;;;;6.53;3.10;;;;;;;21.30;58.61;99225.67;1714493;82;21739;-58
2022/08/01 00:36:13;;;;;;;5.30;2.85;;;;;;;21.35;58.89;99224.75;1707709;82;21470;-58
2022/08/01 00:38:39;;;;;;;8.05;3.10;;;;;;;21.35;58.89;99224.75;1705200;83;21597;-57
2022/08/01 00:41:06;;;;;;;5.65;2.90;;;;;;;20.88;59.17;99222.02;1707457;83;21498;-57
2022/08/01 00:43:32;;;;;;;5.60;2.60;;;;;;;20.34;61.77;99238.05;1703858;83;21404;-57
2022/08/01 00:45:59;;;;;;;6.42;3.00;;;;;;;20.27;62.18;99239.58;1701311;83;21820;-57
2022/08/01 00:48:26;;;;;;;5.47;2.77;;;;;;;21.19;60.22;99229.84;1712156;82;21565;-57
2022/08/01 00:50:53;;;;;;;8.60;2.92;;;;;;;21.37;58.98;99217.42;1706127;83;21455;-57
2022/08/01 00:53:19;;;;;;;3.90;2.95;;;;;;;21.47;58.46;99221.94;1700260;83;21463;-57
2022/08/01 00:55:47;;;;;;;8.78;3.17;;;;;;;21.46;58.11;99216.25;1709565;83;21552;-57
2022/08/01 00:58:14;;;;;;;4.00;2.92;;;;;;;21.50;57.94;99209.62;1707452;82;21898;-57
2022/08/01 01:00:40;;;;;;;5.72;2.50;;;;;;;21.45;57.98;99209.20;1708041;82;21707;-58
2022/08/01 01:03:07;;;;;;;4.62;2.55;;;;;;;21.44;58.03;99207.51;1709101;82;21604;-58
2022/08/01 01:05:40;;;;;;;3.23;2.53;;;;;;;21.47;58.13;99208.56;1707014;82;21521;-57
2022/08/01 01:08:11;;;;;;;6.17;2.70;;;;;;;21.48;58.12;99206.25;1715349;82;21497;-57
2022/08/01 01:10:52;;;;;;;7.22;2.62;;;;;;;20.36;61.19;99225.41;1702432;83;21968;-57
2022/08/01 01:13:46;;;;;;;4.92;3.00;;;;;;;20.37;61.51;99223.94;1704372;83;21474;-57
2022/08/01 01:16:15;;;;;;;6.28;2.60;;;;;;;20.17;61.91;99219.08;1673609;83;21525;-56
2022/08/01 01:18:49;;;;;;;6.50;2.87;;;;;;;20.99;59.26;99212.52;1694882;82;21668;-56
2022/08/01 01:21:24;;;;;;;4.30;2.70;;;;;;;20.99;59.26;99212.52;1705352;82;20978;-56
2022/08/01 01:24:27;;;;;;;4.97;2.58;;;;;;;21.11;59.25;99207.02;1705735;83;21806;-58
2022/08/01 01:27:27;;;;;;;4.15;2.83;;;;;;;21.12;58.92;99194.84;1654339;83;21495;-57
2022/08/01 01:29:55;;;;;;;5.67;2.60;;;;;;;21.20;58.71;99204.81;1698661;83;21906;-57
2022/08/01 01:32:33;;;;;;;7.92;2.42;;;;;;;21.25;58.88;99205.23;1701384;82;21454;-58
2022/08/01 01:35:04;;;;;;;7.67;2.95;;;;;;;21.25;58.88;99205.23;1710429;82;20950;-57
2022/08/01 01:37:31;;;;;;;5.37;3.10;;;;;;;21.25;58.57;99205.70;1699534;82;21850;-57
2022/08/01 01:39:57;;;;;;;7.85;2.87;;;;;;;21.27;58.40;99201.92;1711449;82;21496;-57
2022/08/01 01:42:24;;;;;;;5.47;2.58;;;;;;;21.28;58.34;99207.59;1705322;83;21648;-57
2022/08/01 01:44:51;;;;;;;8.67;2.50;;;;;;;21.25;58.28;99203.89;1711921;82;21491;-57
2022/08/01 01:47:17;;;;;;;4.35;2.70;;;;;;;21.21;58.25;99209.19;1705831;83;21601;-57
2022/08/01 01:49:45;;;;;;;12.07;2.62;;;;;;;21.18;58.18;99217.48;1711688;83;21770;-57
2022/08/01 01:52:14;;;;;;;4.65;2.60;;;;;;;21.13;58.01;99207.70;1718783;82;21579;-57
2022/08/01 01:54:44;;;;;;;5.60;2.92;;;;;;;21.12;58.31;99216.73;1705377;82;20972;-59
2022/08/01 01:57:11;;;;;;;11.43;3.05;;;;;;;21.12;58.31;99216.73;1707373;83;21426;-59
2022/08/01 01:59:38;;;;;;;8.55;3.08;;;;;;;21.12;58.45;99222.08;1715860;82;21541;-58
2022/08/01 02:02:05;;;;;;;6.72;2.83;;;;;;;21.09;58.41;99212.49;1722106;82;21903;-59
2022/08/01 02:04:33;;;;;;;6.22;2.50;;;;;;;21.07;58.42;99216.31;1707260;82;20944;-58
2022/08/01 02:07:01;;;;;;;3.75;2.15;;;;;;;21.01;58.64;99213.72;1708099;82;21438;-57
2022/08/01 02:09:29;;;;;;;6.37;2.75;;;;;;;21.01;58.73;99213.72;1700891;82;21514;-57
2022/08/01 02:11:55;;;;;;;6.00;2.65;;;;;;;20.99;58.84;99219.20;1700917;83;21433;-58
2022/08/01 02:14:22;;;;;;;6.25;2.65;;;;;;;20.98;59.21;99218.86;1712854;81;21868;-57
2022/08/01 02:16:49;;;;;;;6.47;3.57;;;;;;;20.98;59.21;99218.86;1716754;82;21516;-57
2022/08/01 02:19:19;;;;;;;8.48;3.00;;;;;;;20.98;59.00;99219.33;1706039;82;21703;-59
2022/08/01 02:21:56;;;;;;;4.33;2.47;;;;;;;20.95;59.43;99212.95;1702033;82;21651;-59
2022/08/01 02:24:46;;;;;;;8.93;2.90;;;;;;;20.95;59.43;99212.95;1651223;85;21443;-59
2022/08/01 02:27:17;;;;;;;4.67;2.33;;;;;;;20.14;61.67;99231.35;1578597;89;22261;-58
2022/08/01 02:30:05;;;;;;;6.05;2.47;;;;;;;20.14;61.67;99231.35;1607451;88;21653;-57
2022/08/01 02:32:40;;;;;;;4.03;2.40;;;;;;;20.46;62.47;99222.78;1681191;82;21470;-60
2022/08/01 02:35:10;;;;;;;9.58;3.02;;;;;;;20.46;62.47;99222.78;1710749;83;21017;-57
2022/08/01 02:37:37;;;;;;;5.33;2.52;;;;;;;20.29;61.76;99221.13;1701961;83;21520;-57
2022/08/01 02:40:05;;;;;;;5.58;2.17;;;;;;;20.26;61.72;99217.39;1706745;82;21795;-57
2022/08/01 02:42:32;;;;;;;11.03;2.85;;;;;;;20.32;61.67;99216.83;1711847;82;21455;-57
2022/08/01 02:44:58;;;;;;;6.95;2.50;;;;;;;20.28;61.85;99214.09;1703029;82;21482;-57
2022/08/01 02:47:26;;;;;;;5.45;2.80;;;;;;;20.34;61.83;99210.02;1717246;82;21502;-57
2022/08/01 02:49:52;;;;;;;5.58;3.52;;;;;;;20.36;61.83;99210.73;1706836;82;21542;-57
2022/08/01 02:52:20;;;;;;;4.25;2.52;;;;;;;20.37;61.80;99206.59;1659612;83;21903;-57
2022/08/01 02:54:49;;;;;;;;;;;;;;;20.37;61.67;99206.59;1684441;82;21516;-57
2022/08/01 02:57:16;;;;;;;2.75;2.50;;;;;;;20.40;61.87;99209.49;1707493;82;20442;-57
2022/08/01 02:59:42;;;;;;;3.03;2.27;;;;;;;20.42;61.33;99208.86;1680777;82;21237;-57
2022/08/01 03:02:09;;;;;;;5.55;2.52;;;;;;;20.33;61.60;99209.69;1718708;82;21713;-57
2022/08/01 03:04:38;;;;;;;3.25;2.40;;;;;;;20.42;61.62;99203.52;1705258;82;21902;-57
2022/08/01 03:07:06;;;;;;;6.87;2.47;;;;;;;20.69;60.56;99202.01;1705150;82;21060;-57
2022/08/01 03:09:37;;;;;;;6.70;2.50;;;;;;;20.42;61.09;99207.02;1717858;82;21127;-57
2022/08/01 03:12:09;;;;;;;2.90;2.15;;;;;;;20.42;61.27;99208.86;1705547;82;21537;-57
2022/08/01 03:14:38;;;;;;;3.52;2.37;;;;;;;20.46;61.26;99208.09;1715023;82;21590;-57
2022/08/01 03:17:05;;;;;;;5.30;2.72;;;;;;;20.46;61.04;99211.59;1716377;81;21845;-57
2022/08/01 03:19:32;;;;;;;6.20;2.40;;;;;;;20.49;60.86;99215.30;1708504;82;21398;-57
2022/08/01 03:21:59;;;;;;;5.28;2.35;;;;;;;20.50;60.90;99218.34;1686296;83;21443;-57
2022/08/01 03:24:26;;;;;;;4.80;2.30;;;;;;;20.54;60.93;99219.74;1708847;82;21022;-57
2022/08/01 03:26:53;;;;;;;4.17;2.60;;;;;;;20.56;60.96;99219.11;1704380;82;21522;-57
2022/08/01 03:29:22;;;;;;;3.73;2.40;;;;;;;20.61;60.77;99214.73;1707973;82;21930;-57
2022/08/01 03:31:49;;;;;;;4.28;2.25;;;;;;;20.55;60.83;99224.11;1700316;82;20962;-58
2022/08/01 03:34:16;;;;;;;3.42;2.37;;;;;;;20.66;60.66;99215.63;1709378;82;21548;-58
2022/08/01 03:36:53;;;;;;;6.30;2.62;;;;;;;20.68;60.49;99218.53;1710775;82;21582;-58
2022/08/01 03:39:19;;;;;;;6.37;2.40;;;;;;;20.57;60.79;99218.14;1707183;83;21451;-59
2022/08/01 03:41:59;;;;;;;6.65;2.33;;;;;;;20.57;60.72;99213.30;1700348;83;21781;-58
2022/08/01 03:44:28;;;;;;;2.65;2.20;;;;;;;20.61;60.70;99218.23;1708524;82;21549;-58
2022/08/01 03:47:04;;;;;;;5.45;2.42;;;;;;;20.58;60.97;99216.30;1702053;83;21578;-58
2022/08/01 03:49:35;;;;;;;7.58;2.77;;;;;;;20.58;60.97;99216.30;1702684;83;21434;-58
2022/08/01 03:52:04;;;;;;;3.62;2.90;;;;;;;20.65;60.38;99215.30;1706317;82;21426;-58
2022/08/01 03:54:33;;;;;;;3.33;2.27;;;;;;;20.67;60.26;99220.00;1703761;83;21747;-57
2022/08/01 03:57:01;;;;;;;5.70;2.47;;;;;;;20.60;60.34;99217.88;1697628;83;21510;-60
2022/08/01 03:59:29;;;;;;;;;;;;;;;20.70;59.96;99211.69;1708668;83;21525;-58
2022/08/01 04:01:56;;;;;;;2.45;2.25;;;;;;;20.76;60.00;99215.16;1708898;83;20541;-58
2022/08/01 04:04:22;;;;;;;7.15;2.47;;;;;;;20.79;59.93;99213.05;1708750;82;21472;-58
2022/08/01 04:06:53;;;;;;;3.77;2.67;;;;;;;20.88;59.51;99215.34;1700980;83;21825;-58
2022/08/01 04:09:17;;;;;;;5.97;2.45;;;;;;;20.94;59.24;99213.93;1703324;82;21040;-58
2022/08/01 04:11:43;;;;;;;13.50;2.30;;;;;;;20.94;59.24;99213.93;1707134;83;21487;-58
2022/08/01 04:14:10;;;;;;;6.20;2.50;;;;;;;21.03;59.07;99205.56;1708491;82;21584;-58
2022/08/01 04:16:37;;;;;;;3.25;2.90;;;;;;;21.03;59.07;99205.56;1708767;83;21418;-59
2022/08/01 04:22:02;;;;;;;2.80;2.10;;;;;;;20.66;60.52;99211.62;1778089;78;23136;-56
2022/08/01 04:24:29;;;;;;;5.83;2.72;;;;;;;20.99;59.49;99209.84;1744290;80;21544;-57
2022/08/01 04:26:56;;;;;;;3.37;2.63;;;;;;;21.10;59.35;99207.52;1756219;80;21905;-57
2022/08/01 04:29:23;;;;;;;6.53;3.40;;;;;;;21.11;59.02;99204.34;1746817;80;21804;-59
2022/08/01 04:31:50;;;;;;;4.70;2.70;;;;;;;21.08;58.84;99188.11;1745868;80;21522;-56
2022/08/01 04:34:20;;;;;;;7.05;2.87;;;;;;;21.25;58.56;99197.21;1761696;80;21486;-57
2022/08/01 04:36:46;;;;;;;3.47;2.22;;;;;;;21.36;58.00;99197.04;1745293;80;21586;-57
2022/08/01 04:39:13;;;;;;;6.75;2.55;;;;;;;21.44;57.90;99195.47;1729113;81;21911;-58
2022/08/01 04:41:40;;;;;;;5.30;2.52;;;;;;;21.51;57.79;99196.58;1736642;80;21525;-59
2022/08/01 04:44:07;;;;;;;4.33;2.20;;;;;;;21.60;57.38;99190.35;1698289;81;21571;-58
2022/08/01 04:46:34;;;;;;;6.60;2.50;;;;;;;21.71;57.15;99189.33;1709448;81;21449;-59
2022/08/01 04:49:01;;;;;;;4.67;2.02;;;;;;;21.78;56.88;99189.09;1708491;81;21040;-58
2022/08/01 04:51:27;;;;;;;4.85;2.20;;;;;;;21.86;56.54;99191.02;1704185;83;21904;-58
2022/08/01 04:53:54;;;;;;;5.17;2.40;;;;;;;21.91;56.42;99188.74;1709067;82;21506;-58
2022/08/01 04:56:21;;;;;;;3.17;2.23;;;;;;;21.94;55.94;99186.61;1705360;83;21446;-59
2022/08/01 04:58:47;;;;;;;5.87;1.92;;;;;;;22.01;55.54;99188.18;1698063;83;21470;-59
2022/08/01 05:01:14;;;;;;;6.05;2.62;;;;;;;22.05;55.11;99184.70;1700695;81;21521;-59
2022/08/01 05:03:40;;;;;;;2.05;1.95;;;;;;;22.11;55.09;99186.77;1706698;82;21701;-59
2022/08/01 05:06:07;;;;;;;6.55;2.87;;;;;;;22.12;54.90;99177.77;1711992;81;21458;-59
2022/08/01 05:08:34;;;;;;;3.15;2.08;;;;;;;22.16;54.76;99176.47;1717614;81;21596;-59
2022/08/01 05:11:01;;;;;;;3.87;2.33;;;;;;;22.20;54.68;99175.16;1691632;83;21460;-59
2022/08/01 05:13:27;;;;;;;4.42;2.10;;;;;;;22.27;54.69;99187.49;1700318;82;21505;-59
2022/08/01 05:15:54;;;;;;;4.42;2.17;;;;;;;22.41;54.08;99178.08;1702147;82;22035;-59
2022/08/01 05:18:21;;;;;;;4.37;2.40;;;;;;;22.41;54.08;99178.08;1705412;82;21420;-59
2022/08/01 05:20:48;;;;;;;4.85;2.08;;;;;;;22.49;53.79;99168.30;1705866;82;21603;-62
2022/08/01 05:23:14;;;;;;;4.28;2.00;;;;;;;22.57;53.38;99166.69;1689889;83;21432;-59
2022/08/01 05:25:41;;;;;;;7.65;2.70;;;;;;;22.69;52.96;99168.95;1669149;84;20962;-59
2022/08/01 05:28:08;;;;;;;2.77;1.90;;;;;;;22.90;52.77;99169.11;1690715;82;21818;-59
2022/08/01 05:30:35;;;;;;;3.70;2.00;;;;;;;23.07;51.94;99160.71;1730230;80;21901;-59
2022/08/01 05:33:01;;;;;;;5.67;2.30;;;;;;;23.22;51.52;99163.66;1742501;80;21577;-59
2022/08/01 05:35:28;;;;;;;8.83;2.52;;;;;;;23.27;51.22;99160.84;1694466;83;21495;-59
2022/08/01 05:37:54;;;;;;;2.62;1.98;;;;;;;23.31;50.72;99156.83;1693612;81;21586;-59
2022/08/01 05:40:21;;;;;;;6.87;2.22;;;;;;;23.37;50.61;99156.70;1693072;82;21463;-59
2022/08/01 05:42:48;;;;;;;5.30;2.35;;;;;;;23.40;50.26;99157.73;1691843;83;21471;-60
2022/08/01 05:45:14;;;;;;;5.55;2.40;;;;;;;23.50;50.03;99158.95;1690275;82;21600;-60
2022/08/01 05:47:41;;;;;;;11.18;2.22;;;;;;;23.58;49.86;99157.63;1686871;83;21034;-61
2022/08/01 05:50:09;;;;;;;4.83;2.02;;;;;;;23.61;49.58;99158.66;1696334;82;21554;-62
2022/08/01 05:52:36;;;;;;;6.70;2.40;;;;;;;23.61;49.51;99161.86;1702387;82;21910;-61
2022/08/01 05:55:04;;;;;;;3.42;2.20;;;;;;;23.61;49.40;99169.39;1695189;83;21515;-59
2022/08/01 05:57:31;;;;;;;5.62;2.30;;;;;;;23.66;49.27;99165.73;1695599;83;21608;-59
2022/08/01 05:59:58;;;;;;;4.33;1.90;;;;;;;23.76;49.22;99170.97;1711178;81;21549;-59
2022/08/01 06:02:24;;;;;;;4.42;1.82;;;;;;;23.84;49.05;99169.68;1710602;83;21530;-58
2022/08/01 06:04:51;;;;;;;6.45;2.10;;;;;;;23.92;48.78;99168.86;1692317;82;21540;-57
2022/08/01 06:07:18;;;;;;;2.27;2.07;;;;;;;24.01;48.35;99162.52;1691388;82;20979;-59
2022/08/01 06:09:45;;;;;;;6.77;1.90;;;;;;;24.14;48.10;99159.88;1689442;82;21702;-58
2022/08/01 06:12:11;;;;;;;3.87;2.12;;;;;;;24.21;47.94;99157.70;1701790;83;21536;-57
2022/08/01 06:14:38;;;;;;;3.77;2.10;;;;;;;24.24;47.80;99151.15;1690596;82;21669;-58
2022/08/01 06:17:05;;;;;;;8.55;2.22;;;;;;;24.34;47.66;99148.34;1700760;82;21868;-57
2022/08/01 06:19:31;;;;;;;3.52;1.90;;;;;;;24.44;47.42;99144.46;1695121;82;21601;-56
2022/08/01 06:21:58;;;;;;;7.15;2.20;;;;;;;24.48;47.21;99143.11;1706054;82;21738;-57
2022/08/01 06:24:25;;;;;;;2.87;2.25;;;;;;;24.56;47.39;99142.30;1705091;82;21520;-57
2022/08/01 06:26:51;;;;;;;3.80;2.40;;;;;;;24.60;46.89;99142.81;1703012;82;21415;-57
2022/08/01 06:29:18;;;;;;;6.45;1.98;;;;;;;24.67;46.78;99143.83;1740493;80;22235;-57
2022/08/01 06:31:44;;;;;;;2.83;1.93;;;;;;;24.67;46.84;99139.80;1736989;80;21523;-57
2022/08/01 06:34:12;;;;;;;5.53;2.40;;;;;;;24.69;46.74;99144.49;1694193;82;21586;-57
2022/08/01 06:36:39;;;;;;;4.08;2.10;;;;;;;24.78;46.63;99139.45;1691755;82;21450;-57
2022/08/01 06:39:06;;;;;;;6.78;2.30;;;;;;;24.85;46.86;99135.08;1693112;83;21129;-57
2022/08/01 06:41:34;;;;;;;3.37;2.08;;;;;;;24.88;46.79;99135.23;1689973;82;21823;-57
2022/08/01 06:44:02;;;;;;;3.72;2.40;;;;;;;24.95;46.57;99133.55;1694226;83;21566;-58
2022/08/01 06:46:29;;;;;;;3.58;2.22;;;;;;;25.00;46.33;99126.33;1686424;82;21012;-58
2022/08/01 06:48:56;;;;;;;4.33;2.58;;;;;;;25.09;45.67;99120.41;1748060;80;21558;-58
2022/08/01 06:51:23;;;;;;;7.42;2.42;;;;;;;25.05;45.97;99115.88;1738242;80;21474;-59
2022/08/01 06:53:49;;;;;;;5.72;2.25;;;;;;;25.12;45.99;99113.35;1733356;80;21906;-58
2022/08/01 06:56:16;;;;;;;2.87;2.10;;;;;;;25.20;46.02;99116.87;1729218;80;21621;-58
2022/08/01 06:58:42;;;;;;;4.42;2.22;;;;;;;25.33;46.08;99114.16;1736712;80;21626;-58
2022/08/01 07:01:09;;;;;;;6.72;2.60;;;;;;;25.51;46.23;99112.07;1700114;82;21550;-58
2022/08/01 07:03:36;;;;;;;7.12;2.50;;;;;;;25.60;45.80;99113.72;1692101;82;21494;-58
2022/08/01 07:06:03;;;;;;;2.83;2.17;;;;;;;25.66;45.55;99114.87;1691830;82;21495;-59
2022/08/01 07:08:30;;;;;;;7.80;2.33;;;;;;;25.66;45.32;99115.38;1688898;82;22203;-58
2022/08/01 07:10:59;;;;;;;7.67;2.20;;;;;;;25.69;44.78;99113.15;1692061;82;21480;-58
2022/08/01 07:13:27;;;;;;;3.77;1.90;;;;;;;25.68;44.90;99118.73;1705890;82;21496;-58
2022/08/01 07:15:54;;;;;;;3.30;2.33;;;;;;;25.72;44.96;99114.16;1699606;82;21557;-59
2022/08/01 07:18:20;;;;;;;4.15;2.75;;;;;;;25.84;44.36;99121.32;1737654;80;21821;-59
2022/08/01 07:20:47;;;;;;;4.23;2.40;;;;;;;25.95;44.31;99118.25;1734787;80;21531;-59
2022/08/01 07:23:14;;;;;;;9.83;2.58;;;;;;;26.03;43.98;99112.84;1700790;82;21552;-59
2022/08/01 07:25:41;;;;;;;6.77;2.47;;;;;;;26.13;43.86;99109.08;1694396;83;21436;-60
2022/08/01 07:28:08;;;;;;;13.78;2.35;;;;;;;26.20;44.19;99107.31;1687185;82;21387;-59
2022/08/01 07:30:35;;;;;;;5.35;2.55;;;;;;;26.41;43.93;99107.51;1712882;82;21509;-59
2022/08/01 07:33:02;;;;;;;8.80;2.30;;;;;;;26.59;43.70;99106.34;1704023;82;21660;-59
2022/08/01 07:35:29;;;;;;;5.15;2.30;;;;;;;26.68;43.12;99104.45;1717199;82;21458;-60
2022/08/01 07:37:55;;;;;;;2.58;2.25;;;;;;;26.75;42.83;99104.05;1705057;82;20974;-59
2022/08/01 07:40:22;;;;;;;5.10;2.40;;;;;;;26.80;42.37;99101.14;1708162;82;20985;-61
2022/08/01 07:42:49;;;;;;;5.47;2.35;;;;;;;26.82;42.04;99094.70;1704731;82;21881;-61
2022/08/01 07:45:16;;;;;;;3.90;2.27;;;;;;;26.81;42.51;99099.27;1698681;82;21530;-62
2022/08/01 07:47:42;;;;;;;6.95;2.33;;;;;;;26.92;41.89;99096.13;1694935;82;21657;-61
2022/08/01 07:50:10;;;;;;;3.50;2.10;;;;;;;26.94;41.68;99090.03;1695818;82;21535;-61
2022/08/01 07:52:37;;;;;;;;;;;;;;;26.98;41.84;99089.16;1711308;82;20988;-61
2022/08/01 07:55:05;;;;;;;2.95;2.45;;;;;;;27.06;41.78;99086.35;1659298;84;21937;-61
2022/08/01 07:57:31;;;;;;;6.53;2.37;;;;;;;27.13;41.83;99098.08;1681762;83;21028;-61
2022/08/01 07:59:58;;;;;;;5.58;2.47;;;;;;;27.15;41.98;99090.63;1691269;82;21418;-60
2022/08/01 08:02:47;;;;;;;9.60;2.42;;;;;;;27.17;42.82;99099.90;1686048;83;21545;-60
2022/08/01 08:05:14;;;;;;;8.48;2.52;;;;;;;27.23;42.74;99103.19;1682463;83;21467;-61
2022/08/01 08:07:42;;;;;;;5.42;2.10;;;;;;;27.35;41.82;99107.14;1682999;83;22126;-61
2022/08/01 08:10:09;;;;;;;7.33;2.60;;;;;;;27.38;41.63;99104.05;1686426;84;21508;-61
2022/08/01 08:12:35;;;;;;;8.50;2.90;;;;;;;27.40;41.31;99097.12;1663481;84;21009;-61
2022/08/01 08:15:05;;;;;;;4.95;3.00;;;;;;;27.39;41.43;99091.41;1658156;84;21078;-61
2022/08/01 08:17:31;;;;;;;6.08;2.85;;;;;;;27.42;41.45;99092.37;1663035;84;21439;-63
2022/08/01 08:19:58;;;;;;;;;;;;;;;27.43;41.27;99094.58;1694512;83;22210;-60
2022/08/01 08:22:25;;;;;;;7.58;2.35;;;;;;;27.42;41.33;99091.54;1695074;82;20475;-61
2022/08/01 08:24:52;;;;;;;5.60;2.75;;;;;;;27.47;42.02;99087.77;1695313;82;21097;-62
2022/08/01 08:27:18;;;;;;;7.03;2.50;;;;;;;27.60;41.39;99077.66;1695973;82;21553;-60
2022/08/01 08:29:45;;;;;;;7.10;2.53;;;;;;;27.62;41.07;99072.90;1667459;84;21567;-61
2022/08/01 08:32:12;;;;;;;6.85;2.75;;;;;;;27.66;40.74;99080.94;1686308;83;21962;-61
2022/08/01 08:34:38;;;;;;;7.87;2.50;;;;;;;27.67;40.56;99071.80;1663641;85;21513;-61
2022/08/01 08:37:05;;;;;;;4.53;2.50;;;;;;;27.72;40.24;99071.55;1656652;84;21532;-61
2022/08/01 08:39:32;;;;;;;7.80;2.63;;;;;;;27.86;40.09;99070.34;1685886;83;21451;-61
2022/08/01 08:42:07;;;;;;;7.12;2.75;;;;;;;27.96;40.15;99069.56;1691262;83;21835;-61
2022/08/01 08:44:34;;;;;;;4.97;2.67;;;;;;;28.05;39.87;99059.45;1687157;83;21817;-60
2022/08/01 08:47:01;;;;;;;7.72;2.60;;;;;;;28.15;39.78;99066.21;1685436;83;21412;-60
2022/08/01 08:49:29;;;;;;;8.70;2.80;;;;;;;28.18;39.49;99061.45;1680719;83;20987;-58
2022/08/01 08:51:59;;;;;;;3.75;2.80;;;;;;;28.17;39.55;99066.55;1664073;84;21573;-59
2022/08/01 08:54:27;;;;;;;4.15;2.70;;;;;;;28.24;39.57;99066.92;1664699;85;21585;-59
2022/08/01 08:56:54;;;;;;;5.78;2.75;;;;;;;28.29;39.23;99068.55;1665065;84;22520;-60
2022/08/01 08:59:21;;;;;;;6.50;3.08;;;;;;;28.30;39.23;99069.37;1685551;83;21519;-60
2022/08/01 09:01:47;;;;;;;8.00;3.30;;;;;;;28.37;39.26;99072.11;1684111;83;21605;-59
2022/08/01 09:04:14;;;;;;;5.77;3.10;;;;;;;28.41;39.42;99082.88;1678744;83;21488;-59
2022/08/01 09:06:40;;;;;;;5.17;3.62;;;;;;;28.44;39.19;99077.89;1663301;84;21535;-59
2022/08/01 09:09:08;;;;;;;3.90;3.37;;;;;;;28.60;38.97;99083.59;1669678;84;21913;-59
2022/08/01 09:11:34;;;;;;;;;;;;;;;28.69;38.99;99068.06;1636419;86;21010;-59
2022/08/01 09:14:09;;;;;;;8.80;3.92;;;;;;;28.73;38.84;99080.16;1627230;86;20152;-58
2022/08/01 09:16:39;;;;;;;8.53;3.67;;;;;;;28.83;38.83;99071.69;1661594;84;21563;-59
2022/08/01 09:19:16;;;;;;;7.55;4.22;;;;;;;28.85;39.09;99076.38;1672281;84;21638;-59
2022/08/01 09:22:03;;;;;;;5.60;3.75;;;;;;;29.00;39.26;99081.16;1663947;85;21856;-59
2022/08/01 09:24:32;;;;;;;9.00;4.28;;;;;;;29.09;38.90;99077.78;1658945;84;21424;-60
2022/08/01 09:26:58;;;;;;;4.97;3.62;;;;;;;29.23;39.03;99080.06;1627358;86;21537;-60
2022/08/01 09:29:29;;;;;;;7.57;3.83;;;;;;;29.39;39.08;99071.61;1656305;84;21555;-57
2022/08/01 09:31:57;;;;;;;4.15;3.40;;;;;;;29.39;39.08;99071.61;1667131;85;21916;-58
2022/08/01 09:34:27;;;;;;;4.70;3.45;;;;;;;29.47;38.67;99071.43;1665592;84;21906;-60
2022/08/01 09:36:56;;;;;;;5.45;3.25;;;;;;;29.53;38.51;99067.61;1668315;84;21523;-59
2022/08/01 09:39:26;;;;;;;7.03;3.08;;;;;;;29.54;38.42;99072.83;1664521;84;21471;-59
2022/08/01 09:41:55;;;;;;;3.35;2.80;;;;;;;29.59;38.42;99072.20;1665619;85;21451;-58
2022/08/01 09:44:40;;;;;;;3.87;2.90;;;;;;;29.67;38.34;99072.88;1667920;84;21002;-58
2022/08/01 09:47:06;;;;;;;6.85;3.00;;;;;;;29.81;38.60;99071.06;1633780;86;21898;-58
2022/08/01 09:49:37;;;;;;;3.95;2.75;;;;;;;29.99;38.68;99066.92;1651853;84;21465;-58
2022/08/01 09:52:22;;;;;;;5.45;3.00;;;;;;;30.18;38.08;99070.20;1632523;86;21598;-60
2022/08/01 09:54:57;;;;;;;3.35;2.60;;;;;;;30.37;37.45;99059.09;1649345;84;21534;-59
2022/08/01 09:57:24;;;;;;;7.75;2.98;;;;;;;30.63;37.33;99063.67;1666023;84;21613;-59
2022/08/01 09:59:53;;;;;;;4.67;2.67;;;;;;;30.80;37.52;99067.31;1631309;86;22051;-59
2022/08/01 10:02:32;;;;;;;4.33;3.10;;;;;;;30.93;37.01;99063.25;1664988;84;21612;-59
2022/08/01 10:05:00;;;;;;;5.00;2.95;;;;;;;31.04;36.36;99059.88;1658192;85;21514;-60
2022/08/01 10:07:27;;;;;;;3.55;2.90;;;;;;;31.16;36.32;99055.15;1609453;88;21648;-60
2022/08/01 10:09:53;;;;;;;8.40;3.10;;;;;;;31.23;36.72;99052.72;1657480;86;21633;-60
2022/08/01 10:12:21;;;;;;;7.22;2.87;;;;;;;31.30;36.29;99056.75;1657834;85;21789;-60
2022/08/01 10:14:49;;;;;;;5.65;2.75;;;;;;;31.26;36.11;99054.69;1650553;85;21582;-60
2022/08/01 10:17:18;;;;;;;3.70;2.92;;;;;;;31.24;36.68;99057.09;1649188;85;21628;-59
2022/08/01 10:19:44;;;;;;;6.78;3.17;;;;;;;31.23;37.24;99064.08;1659359;85;21475;-61
2022/08/01 10:22:16;;;;;;;5.62;3.45;;;;;;;31.23;37.10;99063.58;1655631;85;21550;-59
2022/08/01 10:24:55;;;;;;;5.95;3.00;;;;;;;31.22;36.90;99049.69;1662607;84;21456;-60
2022/08/01 10:27:22;;;;;;;3.98;3.10;;;;;;;31.20;37.06;99051.78;1662302;83;21496;-61
2022/08/01 10:30:07;;;;;;;5.87;3.03;;;;;;;31.17;37.16;99048.66;1666016;85;21463;-60
2022/08/01 10:32:35;;;;;;;5.65;3.12;;;;;;;31.15;37.18;99047.50;1722983;81;27098;-59
2022/08/01 10:35:03;;;;;;;4.53;3.20;;;;;;;31.15;36.87;99048.86;1729867;80;21444;-60
2022/08/01 10:37:30;;;;;;;5.92;3.20;;;;;;;31.11;36.84;99037.30;1724430;80;21512;-59
2022/08/01 10:39:57;;;;;;;7.83;2.90;;;;;;;31.11;36.67;99043.56;1729817;81;21457;-59
2022/08/01 10:42:24;;;;;;;4.07;2.87;;;;;;;31.11;36.58;99042.20;1726812;81;21668;-59
2022/08/01 10:44:50;;;;;;;3.90;3.20;;;;;;;31.14;36.50;99046.39;1740543;80;20957;-61
2022/08/01 10:47:27;;;;;;;5.08;3.12;;;;;;;31.19;36.36;99043.34;1699683;81;21593;-60
2022/08/01 10:50:08;;;;;;;4.65;2.80;;;;;;;31.15;36.45;99043.44;1733430;80;21807;-59
2022/08/01 10:52:36;;;;;;;9.73;3.40;;;;;;;30.94;36.84;99042.36;1703250;81;21608;-60
2022/08/01 10:55:09;;;;;;;7.87;3.00;;;;;;;30.88;36.94;99041.83;1733208;81;21477;-60
2022/08/01 10:57:46;;;;;;;6.00;2.85;;;;;;;30.91;37.15;99038.70;1720424;81;21589;-60
2022/08/01 11:00:19;;;;;;;;;;;;;;;31.03;37.34;99037.84;1732317;81;21483;-59
2022/08/01 11:03:03;;;;;;;5.62;3.22;;;;;;;31.17;37.28;99033.73;1736276;80;21752;-61
2022/08/01 11:05:34;;;;;;;3.25;2.95;;;;;;;31.23;37.03;99037.78;1733408;80;21530;-59
2022/08/01 11:08:04;;;;;;;4.37;3.15;;;;;;;31.24;36.99;99034.01;1729565;80;21472;-58
2022/08/01 11:10:44;;;;;;;9.90;3.08;;;;;;;31.18;37.08;99040.84;1727520;80;21558;-58
2022/08/01 11:13:11;;;;;;;4.40;3.10;;;;;;;31.22;37.07;99031.21;1734818;80;20994;-58
2022/08/01 11:15:38;;;;;;;6.03;2.95;;;;;;;31.26;37.19;99038.41;1730545;81;21839;-58
2022/08/01 11:18:30;;;;;;;4.67;2.92;;;;;;;31.29;37.18;99030.66;1734636;82;21465;-59
2022/08/01 11:20:59;;;;;;;3.72;2.70;;;;;;;31.31;37.16;99043.50;1727059;80;21027;-59
2022/08/01 11:23:31;;;;;;;6.00;2.60;;;;;;;31.27;37.31;99046.34;1727975;80;21527;-59
2022/08/01 11:26:07;;;;;;;2.90;2.58;;;;;;;31.34;37.27;99042.22;1732391;81;21532;-58
2022/08/01 11:28:34;;;;;;;6.65;3.08;;;;;;;31.46;37.24;99043.23;1722205;80;22097;-61
2022/08/01 11:31:16;;;;;;;3.53;2.77;;;;;;;31.56;37.08;99038.72;1733711;80;21532;-58
2022/08/01 11:33:48;;;;;;;5.30;2.90;;;;;;;31.72;36.71;99040.94;1728153;80;20943;-59
2022/08/01 11:36:17;;;;;;;3.65;2.52;;;;;;;31.71;36.91;99039.79;1726038;80;21558;-59
2022/08/01 11:38:51;;;;;;;4.15;2.60;;;;;;;31.85;36.57;99037.81;1733667;80;21494;-59
2022/08/01 11:41:26;;;;;;;6.95;2.92;;;;;;;31.85;36.98;99041.36;1734606;80;21836;-60
2022/08/01 11:44:06;;;;;;;3.50;2.77;;;;;;;31.84;36.56;99038.88;1730315;80;21570;-60
2022/08/01 11:46:56;;;;;;;3.00;2.72;;;;;;;31.75;36.52;99036.41;1729984;80;21392;-61